Time;durP1;ratioP1;P1;durP2;ratioP2;P2;SDS_P1;SDS_P2;PMS_P1;PMS_P2;Temp;Humidity;BMP_temperature;BMP_pressure;BME280_temperature;BME280_humidity;BME280_pressure;Samples;Min_cycle;Max_cycle;Signal;HPM_P1;HPM_P2
2023/09/13 00:02:42;;;;;;;4.10;3.00;;;;;;;-140.66;100.00;55571.53;5117364;28;20119;-71
2023/09/13 00:05:28;;;;;;;6.88;3.60;;;;;;;-140.66;100.00;55571.53;5116754;28;20045;-71
2023/09/13 00:08:14;;;;;;;5.35;3.40;;;;;;;-140.66;100.00;55571.53;5116790;28;20506;-71
2023/09/13 00:11:04;;;;;;;3.58;3.22;;;;;;;-140.66;100.00;55571.53;5102964;28;20035;-71
2023/09/13 00:13:49;;;;;;;6.18;3.38;;;;;;;-140.66;100.00;55571.53;5116155;28;20110;-71
2023/09/13 00:16:35;;;;;;;5.03;3.08;;;;;;;-140.66;100.00;55571.53;5102416;28;20028;-71
2023/09/13 00:19:21;;;;;;;5.13;4.00;;;;;;;-140.66;100.00;55571.53;5102368;28;20023;-71
2023/09/13 00:22:06;;;;;;;5.10;3.50;;;;;;;-140.66;100.00;55571.53;5117957;28;20101;-71
2023/09/13 00:24:52;;;;;;;4.50;3.50;;;;;;;-140.66;100.00;55571.53;5117773;28;20118;-71
2023/09/13 00:27:38;;;;;;;4.57;3.40;;;;;;;-140.66;100.00;55571.53;5118128;28;20027;-72
2023/09/13 00:30:23;;;;;;;10.68;4.00;;;;;;;-140.66;100.00;55571.53;5117742;28;20054;-72
2023/09/13 00:33:09;;;;;;;6.97;4.05;;;;;;;-140.66;100.00;55571.53;5118217;28;20445;-72
2023/09/13 00:35:58;;;;;;;5.47;3.67;;;;;;;-140.66;100.00;55571.53;5102658;28;20020;-72
2023/09/13 00:38:44;;;;;;;6.03;4.15;;;;;;;-140.66;100.00;55571.53;5117116;28;20020;-72
2023/09/13 00:41:33;;;;;;;5.72;3.65;;;;;;;-140.66;100.00;55571.53;5115670;28;20039;-71
2023/09/13 00:44:18;;;;;;;7.25;4.25;;;;;;;-140.66;100.00;55571.53;5100823;28;20169;-72
2023/09/13 00:47:05;;;;;;;5.63;4.50;;;;;;;-140.66;100.00;55571.53;5116341;28;20086;-71
2023/09/13 00:49:50;;;;;;;6.75;4.53;;;;;;;-140.66;100.00;55571.53;5110833;28;20016;-71
2023/09/13 00:52:38;;;;;;;9.38;4.40;;;;;;;-140.66;100.00;55571.53;5102537;28;20038;-71
2023/09/13 00:55:26;;;;;;;7.15;3.97;;;;;;;-140.66;100.00;55571.53;5117087;28;20424;-71
2023/09/13 00:58:12;;;;;;;7.13;4.20;;;;;;;-140.66;100.00;55571.53;5102242;28;20034;-71
2023/09/13 01:00:58;;;;;;;6.45;4.07;;;;;;;-140.66;100.00;55571.53;5116263;28;20023;-71
2023/09/13 01:03:44;;;;;;;7.97;4.57;;;;;;;-140.66;100.00;55571.53;5115261;28;20024;-72
2023/09/13 01:06:30;;;;;;;8.57;4.25;;;;;;;-140.66;100.00;55571.53;5116427;28;20023;-71
2023/09/13 01:09:17;;;;;;;5.55;3.72;;;;;;;-140.66;100.00;55571.53;5115829;28;20106;-70
2023/09/13 01:12:03;;;;;;;7.47;4.30;;;;;;;-140.66;100.00;55571.53;5116052;28;20042;-71
2023/09/13 01:14:50;;;;;;;6.22;3.58;;;;;;;-140.66;100.00;55571.53;5115085;28;20408;-71
2023/09/13 01:17:53;;;;;;;6.22;3.72;;;;;;;-140.66;100.00;55571.53;5115458;28;20035;-70
2023/09/13 01:21:16;;;;;;;5.82;3.72;;;;;;;-140.66;100.00;55571.53;5108121;28;20023;-72
2023/09/13 01:24:39;;;;;;;9.02;3.38;;;;;;;-140.66;100.00;55571.53;5115879;28;20084;-71
2023/09/13 01:27:43;;;;;;;7.25;3.38;;;;;;;-140.66;100.00;55571.53;5117101;28;20039;-71
2023/09/13 01:30:29;;;;;;;6.88;3.30;;;;;;;-140.66;100.00;55571.53;5116665;28;20028;-71
2023/09/13 01:33:15;;;;;;;6.80;3.53;;;;;;;-140.66;100.00;55571.53;5117025;28;20107;-72
2023/09/13 01:36:01;;;;;;;6.95;3.70;;;;;;;-140.66;100.00;55571.53;5115336;28;20467;-72
2023/09/13 01:38:47;;;;;;;5.68;3.28;;;;;;;-140.66;100.00;55571.53;5115808;28;20035;-72
2023/09/13 01:41:51;;;;;;;5.88;3.28;;;;;;;-140.66;100.00;55571.53;5108136;28;20098;-71
2023/09/13 01:44:40;;;;;;;5.35;2.90;;;;;;;-140.66;100.00;55571.53;5099940;28;20048;-71
2023/09/13 01:47:29;;;;;;;6.07;3.28;;;;;;;-140.66;100.00;55571.53;5101926;28;20472;-71
2023/09/13 01:50:15;;;;;;;3.83;2.83;;;;;;;-140.66;100.00;55571.53;5101559;28;20373;-71
2023/09/13 01:53:03;;;;;;;5.60;3.10;;;;;;;-140.66;100.00;55571.53;5115780;28;20039;-72
2023/09/13 01:55:48;;;;;;;6.60;3.30;;;;;;;-140.66;100.00;55571.53;5114865;28;20118;-71
2023/09/13 01:58:34;;;;;;;3.95;3.08;;;;;;;-140.66;100.00;55571.53;5100007;28;20023;-71
2023/09/13 02:01:20;;;;;;;3.70;3.20;;;;;;;-140.66;100.00;55571.53;5116669;28;20032;-72
2023/09/13 02:04:07;;;;;;;6.50;3.33;;;;;;;-140.66;100.00;55571.53;5114912;28;20072;-71
2023/09/13 02:06:53;;;;;;;6.25;3.58;;;;;;;-140.66;100.00;55571.53;5115601;28;20030;-71
2023/09/13 02:09:39;;;;;;;4.00;3.15;;;;;;;-140.66;100.00;55571.53;5114562;28;20024;-71
2023/09/13 02:12:24;;;;;;;4.15;3.30;;;;;;;-140.66;100.00;55571.53;5114734;28;20171;-72
2023/09/13 02:15:10;;;;;;;4.05;3.00;;;;;;;-140.66;100.00;55571.53;5114351;28;20088;-71
2023/09/13 02:17:56;;;;;;;6.40;3.13;;;;;;;-140.66;100.00;55571.53;5114834;28;20031;-71
2023/09/13 02:20:42;;;;;;;4.00;3.38;;;;;;;-140.66;100.00;55571.53;5100458;28;20027;-72
2023/09/13 02:23:28;;;;;;;4.68;3.13;;;;;;;-140.66;100.00;55571.53;5114029;28;20061;-71
2023/09/13 02:26:24;;;;;;;6.75;3.65;;;;;;;-140.66;100.00;55571.53;5114932;28;20330;-71
2023/09/13 02:29:10;;;;;;;4.88;3.45;;;;;;;-140.66;100.00;55571.53;5115374;28;20124;-71
2023/09/13 02:31:55;;;;;;;7.97;3.63;;;;;;;-140.66;100.00;55571.53;5113918;28;20038;-71
2023/09/13 02:34:44;;;;;;;6.63;3.58;;;;;;;-140.66;100.00;55571.53;5113428;28;20035;-70
2023/09/13 02:37:30;;;;;;;3.90;3.17;;;;;;;-140.66;100.00;55571.53;5100181;28;20055;-71
2023/09/13 02:40:16;;;;;;;5.93;3.45;;;;;;;-140.66;100.00;55571.53;5100230;28;20093;-71
2023/09/13 02:43:02;;;;;;;4.07;3.22;;;;;;;-140.66;100.00;55571.53;5100855;28;20050;-71
2023/09/13 02:45:47;;;;;;;3.92;3.13;;;;;;;-140.66;100.00;55571.53;5099710;28;20446;-70
2023/09/13 02:48:34;;;;;;;5.70;3.72;;;;;;;-140.66;100.00;55571.53;5100472;28;20173;-70
2023/09/13 02:51:19;;;;;;;10.15;3.40;;;;;;;-140.66;100.00;55571.53;5115170;28;20028;-71
2023/09/13 02:54:05;;;;;;;7.30;3.65;;;;;;;-140.66;100.00;55571.53;5098178;28;20407;-70
2023/09/13 02:56:53;;;;;;;6.75;3.53;;;;;;;-140.66;100.00;55571.53;5113904;28;20028;-70
2023/09/13 02:59:38;;;;;;;9.77;3.58;;;;;;;-140.66;100.00;55571.53;5100852;28;20024;-71
2023/09/13 03:02:24;;;;;;;3.85;3.40;;;;;;;-140.66;100.00;55571.53;5115184;28;20034;-71
2023/09/13 03:05:10;;;;;;;5.00;3.65;;;;;;;-140.66;100.00;55571.53;5099662;28;20342;-70
2023/09/13 03:07:56;;;;;;;4.97;3.60;;;;;;;-140.66;100.00;55571.53;5114437;28;20070;-71
2023/09/13 03:10:42;;;;;;;5.82;3.55;;;;;;;-140.66;100.00;55571.53;5099625;28;20110;-71
2023/09/13 03:13:28;;;;;;;4.88;3.20;;;;;;;-140.66;100.00;55571.53;5099822;28;20023;-71
2023/09/13 03:16:18;;;;;;;7.85;3.63;;;;;;;-140.66;100.00;55571.53;5114982;28;20415;-70
2023/09/13 03:19:04;;;;;;;4.22;3.60;;;;;;;-140.66;100.00;55571.53;5099598;28;20098;-70
2023/09/13 03:21:50;;;;;;;5.07;3.97;;;;;;;-140.66;100.00;55571.53;5115274;28;20023;-70
2023/09/13 03:24:36;;;;;;;5.47;3.60;;;;;;;-140.66;100.00;55571.53;5118133;28;20024;-70
2023/09/13 03:27:21;;;;;;;5.63;3.70;;;;;;;-140.66;100.00;55571.53;5118893;28;20119;-71
2023/09/13 03:30:07;;;;;;;7.68;4.00;;;;;;;-140.66;100.00;55571.53;5117431;28;20373;-71
2023/09/13 03:32:53;;;;;;;7.13;3.95;;;;;;;-140.66;100.00;55571.53;5103471;28;20122;-70
2023/09/13 03:35:39;;;;;;;7.25;3.60;;;;;;;-140.66;100.00;55571.53;5102511;28;20042;-71
2023/09/13 03:38:25;;;;;;;6.43;3.60;;;;;;;-140.66;100.00;55571.53;5116646;28;20031;-71
2023/09/13 03:41:16;;;;;;;5.30;3.40;;;;;;;-140.66;100.00;55571.53;5118394;28;20061;-70
2023/09/13 03:44:03;;;;;;;10.27;3.60;;;;;;;-140.66;100.00;55571.53;5117904;28;20044;-71
2023/09/13 03:46:49;;;;;;;5.85;4.05;;;;;;;-140.66;100.00;55571.53;5103231;28;20461;-71
2023/09/13 03:49:34;;;;;;;6.40;3.85;;;;;;;-140.66;100.00;55571.53;5116697;28;20042;-71
2023/09/13 03:52:20;;;;;;;11.45;4.95;;;;;;;-140.66;100.00;55571.53;5117942;28;20402;-70
2023/09/13 03:55:06;;;;;;;6.72;5.40;;;;;;;-140.66;100.00;55571.53;5117575;28;20023;-70
2023/09/13 03:57:52;;;;;;;8.75;4.38;;;;;;;-140.66;100.00;55571.53;5118373;28;20059;-71
2023/09/13 04:00:38;;;;;;;7.50;4.38;;;;;;;-140.66;100.00;55571.53;5117953;28;20033;-73
2023/09/13 04:03:24;;;;;;;10.88;7.10;;;;;;;-140.66;100.00;55571.53;5117390;28;20118;-71
2023/09/13 04:06:10;;;;;;;8.02;5.03;;;;;;;-140.66;100.00;55571.53;5117559;28;20368;-71
2023/09/13 04:08:56;;;;;;;7.47;4.55;;;;;;;-140.66;100.00;55571.53;5116088;28;20042;-70
2023/09/13 04:11:41;;;;;;;10.60;4.70;;;;;;;-140.66;100.00;55571.53;5103335;28;20027;-72
2023/09/13 04:14:27;;;;;;;8.65;4.32;;;;;;;-140.66;100.00;55571.53;5116780;28;20032;-71
2023/09/13 04:17:13;;;;;;;12.02;4.65;;;;;;;-140.66;100.00;55571.53;5118972;28;20023;-72
2023/09/13 04:19:59;;;;;;;13.57;5.07;;;;;;;-140.66;100.00;55571.53;5116686;28;20449;-70
2023/09/13 04:22:44;;;;;;;14.57;5.15;;;;;;;-140.66;100.00;55571.53;5116844;28;20357;-70
2023/09/13 04:25:30;;;;;;;11.38;4.75;;;;;;;-140.66;100.00;55571.53;5116838;28;20094;-71
2023/09/13 04:28:17;;;;;;;18.73;4.90;;;;;;;-140.66;100.00;55571.53;5102956;28;20028;-71
2023/09/13 04:31:02;;;;;;;11.20;4.72;;;;;;;-140.66;100.00;55571.53;5101753;28;20031;-71
2023/09/13 04:33:53;;;;;;;10.50;5.28;;;;;;;-140.66;100.00;55571.53;5101204;28;20019;-73
2023/09/13 04:36:38;;;;;;;11.65;5.40;;;;;;;-140.66;100.00;55571.53;5101519;28;20074;-71
2023/09/13 04:39:24;;;;;;;11.30;5.30;;;;;;;-140.66;100.00;55571.53;5116166;28;20103;-71
2023/09/13 04:42:10;;;;;;;17.08;5.25;;;;;;;-140.66;100.00;55571.53;5118139;28;20039;-71
2023/09/13 04:44:56;;;;;;;14.65;5.75;;;;;;;-140.66;100.00;55571.53;5116757;28;20070;-71
2023/09/13 04:47:42;;;;;;;14.32;5.28;;;;;;;-140.66;100.00;55571.53;5117128;28;20105;-72
2023/09/13 04:50:28;;;;;;;9.63;5.13;;;;;;;-140.66;100.00;55571.53;5116528;28;20023;-71
2023/09/13 04:53:14;;;;;;;10.60;4.40;;;;;;;-140.66;100.00;55571.53;5116934;28;20028;-70
2023/09/13 04:56:01;;;;;;;11.63;4.40;;;;;;;-140.66;100.00;55571.53;5116520;28;20096;-71
2023/09/13 04:58:46;;;;;;;7.55;4.55;;;;;;;-140.66;100.00;55571.53;5115979;28;20504;-70
2023/09/13 05:01:32;;;;;;;10.27;4.30;;;;;;;-140.66;100.00;55571.53;5116944;28;20035;-71
2023/09/13 05:04:18;;;;;;;10.75;4.88;;;;;;;-140.66;100.00;55571.53;5116873;28;20074;-71
2023/09/13 05:07:05;;;;;;;14.85;5.13;;;;;;;-140.66;100.00;55571.53;5115458;28;20027;-72
2023/09/13 05:09:50;;;;;;;16.13;4.60;;;;;;;-140.66;100.00;55571.53;5116723;28;20107;-70
2023/09/13 05:12:36;;;;;;;14.43;4.72;;;;;;;-140.66;100.00;55571.53;5115477;28;20108;-70
2023/09/13 05:15:22;;;;;;;9.63;4.60;;;;;;;-140.66;100.00;55571.53;5116580;28;20074;-71
2023/09/13 05:18:07;;;;;;;13.27;5.03;;;;;;;-140.66;100.00;55571.53;5115370;28;20115;-70
2023/09/13 05:20:53;;;;;;;19.50;5.40;;;;;;;-140.66;100.00;55571.53;5117495;28;20110;-71
2023/09/13 05:23:39;;;;;;;11.43;5.13;;;;;;;-140.66;100.00;55571.53;5117062;28;20354;-71
2023/09/13 05:26:25;;;;;;;7.65;4.85;;;;;;;-140.66;100.00;55571.53;5114685;28;20033;-71
2023/09/13 05:29:11;;;;;;;15.77;4.70;;;;;;;-140.66;100.00;55571.53;5114446;28;20023;-71
2023/09/13 05:31:56;;;;;;;8.88;4.78;;;;;;;-140.66;100.00;55571.53;5101746;28;20426;-72
2023/09/13 05:34:42;;;;;;;9.18;4.70;;;;;;;-140.66;100.00;55571.53;5116295;28;20047;-72
2023/09/13 05:37:28;;;;;;;10.38;4.30;;;;;;;-140.66;100.00;55571.53;5116333;28;20102;-71
2023/09/13 05:40:14;;;;;;;8.70;4.65;;;;;;;-140.66;100.00;55571.53;5114814;28;20046;-71
2023/09/13 05:42:59;;;;;;;15.45;5.20;;;;;;;-140.66;100.00;55571.53;5114400;28;20027;-70
2023/09/13 05:45:45;;;;;;;10.63;4.25;;;;;;;-140.66;100.00;55571.53;5115406;28;20035;-71
2023/09/13 05:48:32;;;;;;;8.35;3.92;;;;;;;-140.66;100.00;55571.53;5104137;28;20024;-71
2023/09/13 05:51:19;;;;;;;9.25;4.28;;;;;;;-140.66;100.00;55571.53;5101079;28;20042;-70
2023/09/13 05:54:05;;;;;;;6.20;4.10;;;;;;;-140.66;100.00;55571.53;5114686;28;20024;-71
2023/09/13 05:56:56;;;;;;;6.72;3.85;;;;;;;-140.66;100.00;55571.53;5113460;28;20027;-70
2023/09/13 05:59:42;;;;;;;7.45;3.92;;;;;;;-140.66;100.00;55571.53;5115463;28;20031;-71
2023/09/13 06:02:27;;;;;;;8.48;3.78;;;;;;;-140.66;100.00;55571.53;5114986;28;20165;-70
2023/09/13 06:05:13;;;;;;;9.07;3.95;;;;;;;-140.66;100.00;55571.53;5114337;28;20080;-70
2023/09/13 06:07:59;;;;;;;7.43;4.03;;;;;;;-140.66;100.00;55571.53;5114442;28;20054;-70
2023/09/13 06:10:48;;;;;;;8.63;4.03;;;;;;;-140.66;100.00;55571.53;5115429;28;20024;-71
2023/09/13 06:13:34;;;;;;;6.43;3.90;;;;;;;-140.66;100.00;55571.53;5114015;28;20114;-70
2023/09/13 06:16:20;;;;;;;11.77;4.53;;;;;;;-140.66;100.00;55571.53;5099949;28;20040;-71
2023/09/13 06:19:05;;;;;;;7.80;4.25;;;;;;;-140.66;100.00;55571.53;5114747;28;20369;-71
2023/09/13 06:21:51;;;;;;;9.25;4.10;;;;;;;-140.66;100.00;55571.53;5116313;28;20031;-71
2023/09/13 06:24:37;;;;;;;10.98;4.20;;;;;;;-140.66;100.00;55571.53;5116101;28;20024;-72
2023/09/13 06:27:23;;;;;;;7.05;3.85;;;;;;;-140.66;100.00;55571.53;5101043;28;20020;-70
2023/09/13 06:30:09;;;;;;;11.15;4.20;;;;;;;-140.66;100.00;55571.53;5115983;28;20457;-73
2023/09/13 06:32:55;;;;;;;6.38;3.97;;;;;;;-140.66;100.00;55571.53;5115538;28;20123;-72
2023/09/13 06:35:43;;;;;;;7.22;4.43;;;;;;;-140.66;100.00;55571.53;5104888;28;20472;-71
2023/09/13 06:38:29;;;;;;;10.90;5.05;;;;;;;-140.66;100.00;55571.53;5116827;28;20086;-71
2023/09/13 06:41:15;;;;;;;13.43;4.95;;;;;;;-140.66;100.00;55571.53;5117170;28;20019;-71
2023/09/13 06:44:01;;;;;;;14.63;4.68;;;;;;;-140.66;100.00;55571.53;5114879;28;20047;-71
2023/09/13 06:46:47;;;;;;;12.35;5.20;;;;;;;-140.66;100.00;55571.53;5114888;28;20046;-71
2023/09/13 06:49:35;;;;;;;8.45;5.25;;;;;;;-140.66;100.00;55571.53;5113340;28;20034;-70
2023/09/13 06:52:21;;;;;;;10.32;4.68;;;;;;;-140.66;100.00;55571.53;5114173;28;20034;-71
2023/09/13 06:55:06;;;;;;;12.45;5.65;;;;;;;-140.66;100.00;55571.53;5098980;28;20023;-72
2023/09/13 06:57:52;;;;;;;12.60;4.93;;;;;;;-140.66;100.00;55571.53;5113142;28;20016;-70
2023/09/13 07:00:39;;;;;;;10.55;4.82;;;;;;;-140.66;100.00;55571.53;5114074;28;20020;-71
2023/09/13 07:03:25;;;;;;;14.50;5.45;;;;;;;-140.66;100.00;55571.53;5113396;28;20114;-71
2023/09/13 07:06:14;;;;;;;8.60;4.82;;;;;;;-140.66;100.00;55571.53;5113820;28;20028;-71
2023/09/13 07:08:59;;;;;;;9.75;4.20;;;;;;;-140.66;100.00;55571.53;5112703;28;20377;-71
2023/09/13 07:11:45;;;;;;;8.23;4.68;;;;;;;-140.66;100.00;55571.53;5098585;28;20118;-72
2023/09/13 07:14:31;;;;;;;6.60;4.93;;;;;;;-140.66;100.00;55571.53;5113292;28;20028;-70
2023/09/13 07:17:18;;;;;;;9.98;4.70;;;;;;;-140.66;100.00;55571.53;5113152;28;20126;-70
2023/09/13 07:20:05;;;;;;;8.27;4.30;;;;;;;-140.66;100.00;55571.53;5114206;28;20019;-72
2023/09/13 07:22:51;;;;;;;9.45;4.57;;;;;;;-140.66;100.00;55571.53;5113457;28;20063;-71
2023/09/13 07:25:36;;;;;;;10.60;4.45;;;;;;;-140.66;100.00;55571.53;5113129;28;20020;-70
2023/09/13 07:28:22;;;;;;;12.13;4.30;;;;;;;-140.66;100.00;55571.53;5112608;28;20035;-71
2023/09/13 07:31:09;;;;;;;7.95;4.43;;;;;;;-140.66;100.00;55571.53;5098962;28;20103;-72
2023/09/13 07:33:55;;;;;;;7.28;4.80;;;;;;;-140.66;100.00;55571.53;5113840;28;20107;-71
2023/09/13 07:36:40;;;;;;;13.43;4.90;;;;;;;-140.66;100.00;55571.53;5113352;28;20070;-71
2023/09/13 07:39:26;;;;;;;10.82;4.68;;;;;;;-140.66;100.00;55571.53;5100104;28;20392;-72
2023/09/13 07:42:12;;;;;;;7.88;4.70;;;;;;;-140.66;100.00;55571.53;5112975;28;20027;-71
2023/09/13 07:44:59;;;;;;;14.93;4.88;;;;;;;-140.66;100.00;55571.53;5112879;28;20043;-71
2023/09/13 07:47:44;;;;;;;9.98;5.05;;;;;;;-140.66;100.00;55571.53;5113415;28;20023;-72
2023/09/13 07:50:38;;;;;;;15.75;5.43;;;;;;;-140.66;100.00;55571.53;5113124;28;20020;-71
2023/09/13 07:53:25;;;;;;;14.05;4.53;;;;;;;-140.66;100.00;55571.53;5113551;28;20106;-72
2023/09/13 07:56:10;;;;;;;10.50;4.82;;;;;;;-140.66;100.00;55571.53;5113743;28;20028;-72
2023/09/13 07:58:56;;;;;;;10.02;4.68;;;;;;;-140.66;100.00;55571.53;5098252;28;20472;-71
2023/09/13 08:01:42;;;;;;;10.98;5.28;;;;;;;-140.66;100.00;55571.53;5112641;28;20449;-72
2023/09/13 08:04:28;;;;;;;9.52;5.13;;;;;;;-140.66;100.00;55571.53;5112285;28;20080;-71
2023/09/13 08:07:13;;;;;;;11.57;5.00;;;;;;;-140.66;100.00;55571.53;5112114;28;20038;-71
2023/09/13 08:10:02;;;;;;;15.98;5.20;;;;;;;-140.66;100.00;55571.53;5116754;28;20019;-71
2023/09/13 08:12:48;;;;;;;16.73;5.13;;;;;;;-140.66;100.00;55571.53;5117468;28;20023;-72
2023/09/13 08:15:34;;;;;;;8.02;5.10;;;;;;;-140.66;100.00;55571.53;5116893;28;20123;-71
2023/09/13 08:18:20;;;;;;;20.20;5.65;;;;;;;-140.66;100.00;55571.53;5116646;28;20023;-72
2023/09/13 08:21:06;;;;;;;13.98;4.65;;;;;;;-140.66;100.00;55571.53;5117408;28;20016;-72
2023/09/13 08:23:52;;;;;;;12.10;4.70;;;;;;;-140.66;100.00;55571.53;5116537;28;20102;-71
2023/09/13 08:26:38;;;;;;;19.13;5.72;;;;;;;-140.66;100.00;55571.53;5116632;28;20019;-71
2023/09/13 08:29:24;;;;;;;8.20;4.47;;;;;;;-140.66;100.00;55571.53;5116728;28;20415;-71
2023/09/13 08:32:09;;;;;;;9.98;5.00;;;;;;;-140.66;100.00;55571.53;5117097;28;20093;-71
2023/09/13 08:34:55;;;;;;;12.05;4.20;;;;;;;-140.66;100.00;55571.53;5101341;28;20074;-71
2023/09/13 08:37:41;;;;;;;12.25;4.30;;;;;;;-140.66;100.00;55571.53;5116575;28;20024;-72
2023/09/13 08:40:27;;;;;;;6.25;3.38;;;;;;;-140.66;100.00;55571.53;5116789;28;20102;-71
2023/09/13 08:43:14;;;;;;;9.57;4.15;;;;;;;-140.66;100.00;55571.53;5116558;28;20127;-72
2023/09/13 08:46:02;;;;;;;9.30;4.57;;;;;;;-140.66;100.00;55571.53;5116025;28;20027;-72
2023/09/13 08:48:50;;;;;;;9.63;4.50;;;;;;;-140.66;100.00;55571.53;5115221;28;20106;-72
2023/09/13 08:51:36;;;;;;;8.63;4.13;;;;;;;-140.66;100.00;55571.53;5101647;28;20019;-72
2023/09/13 08:54:22;;;;;;;9.88;4.20;;;;;;;-140.66;100.00;55571.53;5115573;28;20028;-72
2023/09/13 08:57:09;;;;;;;6.68;3.85;;;;;;;-140.66;100.00;55571.53;5115314;28;20406;-72
2023/09/13 08:59:55;;;;;;;12.00;4.13;;;;;;;-140.66;100.00;55571.53;5116249;28;20122;-72
2023/09/13 09:02:42;;;;;;;9.30;4.45;;;;;;;-140.66;100.00;55571.53;5117002;28;20434;-72
2023/09/13 09:05:31;;;;;;;10.35;4.07;;;;;;;-140.66;100.00;55571.53;5116023;28;20031;-72
2023/09/13 09:08:18;;;;;;;10.15;4.03;;;;;;;-140.66;100.00;55571.53;5115763;28;20034;-72
2023/09/13 09:11:04;;;;;;;10.23;4.28;;;;;;;-140.66;100.00;55571.53;5115303;28;20054;-71
2023/09/13 09:13:52;;;;;;;9.50;4.10;;;;;;;-140.66;100.00;55571.53;5115621;28;20032;-71
2023/09/13 09:16:41;;;;;;;8.82;4.20;;;;;;;-140.66;100.00;55571.53;5116425;28;20024;-71
2023/09/13 09:19:28;;;;;;;8.13;4.00;;;;;;;-140.66;100.00;55571.53;5114782;28;20054;-71
2023/09/13 09:22:16;;;;;;;11.77;4.30;;;;;;;-140.66;100.00;55571.53;5114718;28;20365;-72
2023/09/13 09:25:03;;;;;;;9.85;4.40;;;;;;;-140.66;100.00;55571.53;5115487;28;20031;-72
2023/09/13 09:27:48;;;;;;;9.02;5.00;;;;;;;-140.66;100.00;55571.53;5114272;28;20526;-71
2023/09/13 09:30:34;;;;;;;8.35;4.75;;;;;;;-140.66;100.00;55571.53;5114270;28;20024;-72
2023/09/13 09:33:30;;;;;;;13.52;4.63;;;;;;;-140.66;100.00;55571.53;5115287;28;20116;-72
2023/09/13 09:36:23;;;;;;;8.68;3.92;;;;;;;-140.66;100.00;55571.53;5099856;28;20035;-72
2023/09/13 09:39:10;;;;;;;10.05;4.20;;;;;;;-140.66;100.00;55571.53;5115635;28;20066;-72
2023/09/13 09:41:59;;;;;;;7.85;4.00;;;;;;;-140.66;100.00;55571.53;5116144;28;20024;-71
2023/09/13 09:44:45;;;;;;;8.30;4.38;;;;;;;-140.66;100.00;55571.53;5100566;28;20048;-72
2023/09/13 09:47:36;;;;;;;10.07;4.03;;;;;;;-140.66;100.00;55571.53;5116001;28;20046;-72
2023/09/13 09:50:22;;;;;;;11.15;4.13;;;;;;;-140.66;100.00;55571.53;5115299;28;20043;-72
2023/09/13 09:53:10;;;;;;;8.38;4.32;;;;;;;-140.66;100.00;55571.53;5114673;28;20023;-72
2023/09/13 09:55:56;;;;;;;7.40;3.92;;;;;;;-140.66;100.00;55571.53;5114378;28;20439;-71
2023/09/13 09:58:45;;;;;;;13.50;4.25;;;;;;;-140.66;100.00;55571.53;5099464;28;20027;-71
2023/09/13 10:01:30;;;;;;;8.30;4.22;;;;;;;-140.66;100.00;55571.53;5114932;28;20480;-71
2023/09/13 10:04:16;;;;;;;7.65;4.28;;;;;;;-140.66;100.00;55571.53;5114528;28;20043;-71
2023/09/13 10:07:05;;;;;;;9.38;4.50;;;;;;;-140.66;100.00;55571.53;5099225;28;20129;-72
2023/09/13 10:09:51;;;;;;;8.00;4.53;;;;;;;-140.66;100.00;55571.53;5114473;28;20480;-72
2023/09/13 10:12:44;;;;;;;11.63;4.30;;;;;;;-140.66;100.00;55571.53;5114893;28;20031;-70
2023/09/13 10:15:30;;;;;;;12.30;4.70;;;;;;;-140.66;100.00;55571.53;5114375;28;20110;-72
2023/09/13 10:18:17;;;;;;;10.68;4.55;;;;;;;-140.66;100.00;55571.53;5115023;28;20027;-71
2023/09/13 10:21:06;;;;;;;16.90;5.15;;;;;;;-140.66;100.00;55571.53;5099221;28;20099;-72
2023/09/13 10:24:02;;;;;;;8.73;4.30;;;;;;;-140.66;100.00;55571.53;5114246;28;20028;-72
2023/09/13 10:26:51;;;;;;;9.43;4.45;;;;;;;-140.66;100.00;55571.53;5114219;28;20499;-72
2023/09/13 10:29:40;;;;;;;9.88;4.22;;;;;;;-140.66;100.00;55571.53;5099944;28;20023;-71
2023/09/13 10:32:37;;;;;;;10.57;4.68;;;;;;;-140.66;100.00;55571.53;5113833;28;20031;-72
2023/09/13 10:35:26;;;;;;;11.38;4.10;;;;;;;-140.66;100.00;55571.53;5112981;28;20106;-71
2023/09/13 10:38:37;;;;;;;17.58;4.72;;;;;;;-140.66;100.00;55571.53;5115160;28;20073;-72
2023/09/13 10:41:28;;;;;;;9.18;4.50;;;;;;;-140.66;100.00;55571.53;5114555;28;20306;-72
2023/09/13 10:44:15;;;;;;;9.50;4.20;;;;;;;-140.66;100.00;55571.53;5099092;28;20422;-72
2023/09/13 10:47:01;;;;;;;10.48;4.50;;;;;;;-140.66;100.00;55571.53;5099041;28;20031;-72
2023/09/13 10:49:49;;;;;;;12.32;4.43;;;;;;;-140.66;100.00;55571.53;5114130;28;20425;-72
2023/09/13 10:52:35;;;;;;;13.70;4.60;;;;;;;-140.66;100.00;55571.53;5114100;28;20027;-72
2023/09/13 10:55:22;;;;;;;11.65;4.80;;;;;;;-140.66;100.00;55571.53;5113822;28;20023;-73
2023/09/13 10:58:09;;;;;;;12.93;4.38;;;;;;;-140.66;100.00;55571.53;5114064;28;20034;-72
2023/09/13 11:00:57;;;;;;;9.50;4.55;;;;;;;-140.66;100.00;55571.53;5098570;28;20331;-72
2023/09/13 11:03:44;;;;;;;9.07;4.45;;;;;;;-140.66;100.00;55571.53;5085685;28;20416;-72
2023/09/13 11:06:31;;;;;;;10.15;4.43;;;;;;;-140.66;100.00;55571.53;5114600;28;20024;-72
2023/09/13 11:09:18;;;;;;;11.25;4.93;;;;;;;-140.66;100.00;55571.53;5113531;28;20034;-73
2023/09/13 11:12:05;;;;;;;11.40;4.47;;;;;;;-140.66;100.00;55571.53;5098666;28;20038;-73
2023/09/13 11:14:52;;;;;;;7.40;4.30;;;;;;;-140.66;100.00;55571.53;5112426;28;20027;-74
2023/09/13 11:17:40;;;;;;;15.82;4.25;;;;;;;-140.66;100.00;55571.53;5112566;28;20334;-74
2023/09/13 11:20:38;;;;;;;10.15;4.45;;;;;;;-140.66;100.00;55571.53;5113970;28;20027;-73
2023/09/13 11:23:24;;;;;;;10.13;4.63;;;;;;;-140.66;100.00;55571.53;5113671;28;20024;-73
2023/09/13 11:26:13;;;;;;;13.02;5.25;;;;;;;-140.66;100.00;55571.53;5113003;28;20106;-74
2023/09/13 11:29:22;;;;;;;8.48;4.90;;;;;;;-140.66;100.00;55571.53;5099254;28;20027;-74
2023/09/13 11:32:16;;;;;;;10.45;4.50;;;;;;;-140.66;100.00;55571.53;5113725;28;20122;-74
2023/09/13 11:35:03;;;;;;;21.30;4.82;;;;;;;-140.66;100.00;55571.53;5098672;28;20043;-74
2023/09/13 11:37:49;;;;;;;13.75;4.45;;;;;;;-140.66;100.00;55571.53;5113103;28;20020;-74
2023/09/13 11:40:35;;;;;;;12.13;4.32;;;;;;;-140.66;100.00;55571.53;5113777;28;20049;-72
2023/09/13 11:43:26;;;;;;;8.68;4.85;;;;;;;-140.66;100.00;55571.53;5112948;28;20055;-74
2023/09/13 11:46:12;;;;;;;7.50;4.70;;;;;;;-140.66;100.00;55571.53;5117754;28;20031;-74
2023/09/13 11:48:59;;;;;;;11.88;5.30;;;;;;;-140.66;100.00;55571.53;5117902;28;20042;-73
2023/09/13 11:51:49;;;;;;;14.40;4.88;;;;;;;-140.66;100.00;55571.53;5117801;28;20023;-74
2023/09/13 11:54:54;;;;;;;12.60;4.68;;;;;;;-140.66;100.00;55571.53;5117349;28;20058;-74
2023/09/13 11:57:51;;;;;;;9.65;4.40;;;;;;;-140.66;100.00;55571.53;5102677;28;20088;-74
2023/09/13 12:00:41;;;;;;;13.02;4.95;;;;;;;-140.66;100.00;55571.53;5102631;28;20031;-74
2023/09/13 12:03:32;;;;;;;14.23;4.50;;;;;;;-140.66;100.00;55571.53;5116678;28;20042;-73
2023/09/13 12:06:19;;;;;;;8.93;4.38;;;;;;;-140.66;100.00;55571.53;5115395;28;20047;-71
2023/09/13 12:09:14;;;;;;;11.18;4.90;;;;;;;-140.66;100.00;55571.53;5118157;28;20031;-73
2023/09/13 12:12:00;;;;;;;13.75;4.90;;;;;;;-140.66;100.00;55571.53;5118005;28;20031;-71
2023/09/13 12:14:46;;;;;;;12.68;4.65;;;;;;;-140.66;100.00;55571.53;5117601;28;20059;-71
2023/09/13 12:17:38;;;;;;;14.38;5.72;;;;;;;-140.66;100.00;55571.53;5115265;28;20087;-71
2023/09/13 12:20:24;;;;;;;15.23;4.50;;;;;;;-140.66;100.00;55571.53;5118390;28;20023;-72
2023/09/13 12:23:15;;;;;;;11.85;4.38;;;;;;;-140.66;100.00;55571.53;5115740;28;20178;-72
2023/09/13 12:26:03;;;;;;;14.10;4.30;;;;;;;-140.66;100.00;55571.53;5117066;28;20092;-72
2023/09/13 12:28:49;;;;;;;13.38;4.85;;;;;;;-140.66;100.00;55571.53;5116222;28;20063;-72
2023/09/13 12:31:36;;;;;;;14.55;4.57;;;;;;;-140.66;100.00;55571.53;5117235;28;20035;-72
2023/09/13 12:34:23;;;;;;;10.38;4.25;;;;;;;-140.66;100.00;55571.53;5116776;28;20023;-72
2023/09/13 12:37:09;;;;;;;11.80;4.70;;;;;;;-140.66;100.00;55571.53;5115762;28;20043;-71
2023/09/13 12:39:55;;;;;;;9.27;4.32;;;;;;;-140.66;100.00;55571.53;5116994;28;20381;-71